createdAt,value
2019-05-25T00:01:57.717Z,74.46
2019-05-25T00:04:24.464Z,74.65
2019-05-25T00:06:51.544Z,74.78
2019-05-25T00:09:18.204Z,74.61
2019-05-25T00:11:45.225Z,74.68
2019-05-25T00:14:11.771Z,74.79
2019-05-25T00:16:38.705Z,74.71
2019-05-25T00:19:05.848Z,74.68
2019-05-25T00:21:32.373Z,74.92
2019-05-25T00:24:11.117Z,75.02
2019-05-25T00:26:27.612Z,75.04
2019-05-25T00:28:54.508Z,75.08
2019-05-25T00:31:21.251Z,75.09
2019-05-25T00:33:47.855Z,75.19
2019-05-25T00:36:14.491Z,75.42
2019-05-25T00:38:41.150Z,75.82
2019-05-25T00:41:08.127Z,76.13
2019-05-25T00:43:34.660Z,75.68
2019-05-25T00:46:01.325Z,75.83
2019-05-25T00:48:27.993Z,75.64
2019-05-25T00:50:54.798Z,75.95
2019-05-25T00:53:21.421Z,75.62
2019-05-25T00:55:48.195Z,75.74
2019-05-25T00:58:14.891Z,75.70
2019-05-25T01:00:41.564Z,75.55
2019-05-25T01:03:08.388Z,75.59
2019-05-25T01:05:35.338Z,75.76
2019-05-25T01:08:02.023Z,75.88
2019-05-25T01:10:28.768Z,76.42
2019-05-25T01:12:55.329Z,76.23
2019-05-25T01:15:22.791Z,76.16
2019-05-25T01:17:49.345Z,75.93
2019-05-25T01:20:16.572Z,76.16
2019-05-25T01:22:43.343Z,76.10
2019-05-25T01:25:10.359Z,76.19
2019-05-25T01:27:37.678Z,76.28
2019-05-25T01:30:05.236Z,76.34
2019-05-25T01:32:31.794Z,76.29
2019-05-25T01:34:58.564Z,76.50
2019-05-25T01:37:25.095Z,76.37
2019-05-25T01:39:51.769Z,76.40
2019-05-25T01:42:18.410Z,76.40
2019-05-25T01:44:45.046Z,76.63
2019-05-25T01:47:11.708Z,76.64
2019-05-25T01:49:38.381Z,76.69
2019-05-25T01:52:05.275Z,76.82
2019-05-25T01:54:31.928Z,76.72
2019-05-25T01:56:58.851Z,76.55
2019-05-25T01:59:25.934Z,76.52
2019-05-25T02:01:52.565Z,76.48
2019-05-25T02:04:19.323Z,76.50
2019-05-25T02:06:45.859Z,76.44
2019-05-25T02:09:12.614Z,76.89
2019-05-25T02:11:39.355Z,77.15
2019-05-25T02:14:06.093Z,76.87
2019-05-25T02:16:32.754Z,76.56
2019-05-25T02:18:59.294Z,76.58
2019-05-25T02:21:25.911Z,77.34
2019-05-25T02:23:52.587Z,77.68
2019-05-25T02:26:19.377Z,77.31
2019-05-25T02:28:46.014Z,77.67
2019-05-25T02:31:12.756Z,77.79
2019-05-25T02:33:39.415Z,77.74
2019-05-25T02:36:06.070Z,77.79
2019-05-25T02:38:32.736Z,77.62
2019-05-25T02:40:59.684Z,78.01
2019-05-25T02:43:26.450Z,77.74
2019-05-25T02:45:53.084Z,77.76
2019-05-25T02:48:19.841Z,77.79
2019-05-25T02:50:46.673Z,78.37
2019-05-25T02:53:13.606Z,77.86
2019-05-25T02:55:40.614Z,77.80
2019-05-25T02:58:07.183Z,77.80
2019-05-25T03:00:34.352Z,77.63
2019-05-25T03:03:01.683Z,77.74
2019-05-25T03:05:31.280Z,77.60
2019-05-25T03:07:58.842Z,77.81
2019-05-25T03:10:25.837Z,77.92
2019-05-25T03:12:52.493Z,78.44
2019-05-25T03:15:19.248Z,78.39
2019-05-25T03:17:45.892Z,78.18
2019-05-25T03:20:12.758Z,78.15
2019-05-25T03:22:39.632Z,78.23
2019-05-25T03:25:06.746Z,78.24
2019-05-25T03:27:33.373Z,78.77
2019-05-25T03:29:59.979Z,78.60
2019-05-25T03:32:26.621Z,79.03
2019-05-25T03:34:53.847Z,78.80
2019-05-25T03:37:20.747Z,78.97
2019-05-25T03:39:47.846Z,79.04
2019-05-25T03:42:14.510Z,78.94
2019-05-25T03:44:41.044Z,79.30
2019-05-25T03:47:07.785Z,79.57
2019-05-25T03:49:34.438Z,79.70
2019-05-25T03:52:01.285Z,79.60
2019-05-25T03:54:27.956Z,79.70
2019-05-25T03:56:54.999Z,79.80
2019-05-25T03:59:21.744Z,79.60
2019-05-25T04:01:48.403Z,79.98
2019-05-25T04:04:15.179Z,80.05
2019-05-25T04:06:41.838Z,80.06
2019-05-25T04:09:08.745Z,80.05
2019-05-25T04:11:35.499Z,80.21
2019-05-25T04:14:02.248Z,80.34
2019-05-25T04:16:28.807Z,80.38
2019-05-25T04:18:55.822Z,80.46
2019-05-25T04:21:22.752Z,80.64
2019-05-25T04:23:49.661Z,80.92
2019-05-25T04:26:22.431Z,81.16
2019-05-25T04:28:46.164Z,81.14
2019-05-25T04:31:13.101Z,81.17
2019-05-25T04:33:39.785Z,81.24
2019-05-25T04:36:06.630Z,81.32
2019-05-25T04:38:33.283Z,81.62
2019-05-25T04:40:59.962Z,81.57
2019-05-25T04:43:26.647Z,81.71
2019-05-25T04:45:53.404Z,81.91
2019-05-25T04:48:20.104Z,81.69
2019-05-25T04:50:46.774Z,81.71
2019-05-25T04:53:13.587Z,81.77
2019-05-25T04:55:40.248Z,82.33
2019-05-25T04:58:07.088Z,82.00
2019-05-25T05:00:33.741Z,81.35
2019-05-25T05:03:00.443Z,81.86
2019-05-25T05:05:27.092Z,81.27
2019-05-25T05:07:53.855Z,81.25
2019-05-25T05:10:20.882Z,81.00
2019-05-25T05:12:47.564Z,81.08
2019-05-25T05:15:14.296Z,81.08
2019-05-25T05:17:41.091Z,80.61
2019-05-25T05:20:08.339Z,80.53
2019-05-25T05:22:35.518Z,80.37
2019-05-25T05:25:02.545Z,80.31
2019-05-25T05:27:29.495Z,80.19
2019-05-25T05:29:56.293Z,80.43
2019-05-25T05:32:27.572Z,80.75
2019-05-25T05:34:52.708Z,80.99
2019-05-25T05:37:19.612Z,80.78
2019-05-25T05:39:46.930Z,80.93
2019-05-25T05:42:13.912Z,80.96
2019-05-25T05:44:40.818Z,80.63
2019-05-25T05:47:10.374Z,80.32
2019-05-25T05:49:36.808Z,80.32
2019-05-25T05:52:03.645Z,80.26
2019-05-25T05:54:30.952Z,80.29
2019-05-25T05:57:11.185Z,80.26
2019-05-25T05:59:27.560Z,80.13
2019-05-25T06:01:54.340Z,79.73
2019-05-25T06:04:21.231Z,79.15
2019-05-25T06:06:47.924Z,78.61
2019-05-25T06:09:14.627Z,77.71
2019-05-25T06:11:41.329Z,78.05
2019-05-25T06:14:08.209Z,77.33
2019-05-25T06:16:34.914Z,76.37
2019-05-25T06:19:01.721Z,75.86
2019-05-25T06:21:28.494Z,74.48
2019-05-25T06:23:55.697Z,74.46
2019-05-25T06:26:22.560Z,74.34
2019-05-25T06:28:49.241Z,74.24
2019-05-25T06:31:16.125Z,74.40
2019-05-25T06:33:42.728Z,73.24
2019-05-25T06:36:09.368Z,73.64
2019-05-25T06:38:35.940Z,73.54
2019-05-25T06:41:04.322Z,73.79
2019-05-25T06:43:32.144Z,74.14
2019-05-25T06:45:58.991Z,74.15
2019-05-25T06:48:25.681Z,73.71
2019-05-25T06:50:52.586Z,73.35
2019-05-25T06:53:19.247Z,73.22
2019-05-25T06:55:46.049Z,72.88
2019-05-25T06:58:15.912Z,73.28
2019-05-25T07:00:43.228Z,72.18
2019-05-25T07:03:10.015Z,71.01
2019-05-25T07:05:36.807Z,69.29
2019-05-25T07:08:04.049Z,71.02
2019-05-25T07:10:30.853Z,68.67
2019-05-25T07:12:57.679Z,68.87
2019-05-25T07:15:24.433Z,67.95
2019-05-25T07:17:51.126Z,67.99
2019-05-25T07:20:17.889Z,67.68
2019-05-25T07:22:44.507Z,65.73
2019-05-25T07:25:13.077Z,65.37
2019-05-25T07:27:39.613Z,66.71
2019-05-25T07:30:07.154Z,67.51
2019-05-25T07:32:34.441Z,67.05
2019-05-25T07:35:01.104Z,64.76
2019-05-25T07:37:27.765Z,65.67
2019-05-25T07:39:54.442Z,65.88
2019-05-25T07:42:21.097Z,63.01
2019-05-25T07:44:47.951Z,62.37
2019-05-25T07:47:14.702Z,61.16
2019-05-25T07:49:41.505Z,61.15
2019-05-25T07:52:08.037Z,58.90
2019-05-25T07:54:34.787Z,59.89
2019-05-25T07:57:01.464Z,61.74
2019-05-25T07:59:28.283Z,61.55
2019-05-25T08:01:55.164Z,59.23
2019-05-25T08:04:21.840Z,58.58
2019-05-25T08:06:48.577Z,60.83
2019-05-25T08:09:15.436Z,59.79
2019-05-25T08:11:42.387Z,57.84
2019-05-25T08:14:09.111Z,59.04
2019-05-25T08:16:35.836Z,58.70
2019-05-25T08:19:02.693Z,58.18
2019-05-25T08:21:29.443Z,56.75
2019-05-25T08:23:56.184Z,56.00
2019-05-25T08:26:22.999Z,56.79
2019-05-25T08:28:49.910Z,56.93
2019-05-25T08:31:17.266Z,58.35
2019-05-25T08:33:44.001Z,55.29
2019-05-25T08:36:10.725Z,54.87
2019-05-25T08:38:37.580Z,56.85
2019-05-25T08:41:04.261Z,55.60
2019-05-25T08:43:31.027Z,56.11
2019-05-25T08:45:57.798Z,55.30
2019-05-25T08:48:24.640Z,53.53
2019-05-25T08:50:51.341Z,53.38
2019-05-25T08:53:22.825Z,52.42
2019-05-25T08:55:46.827Z,53.54
2019-05-25T08:58:13.607Z,51.70
2019-05-25T09:00:40.528Z,51.15
2019-05-25T09:03:07.252Z,48.86
2019-05-25T09:05:34.035Z,49.46
2019-05-25T09:08:00.999Z,47.58
2019-05-25T09:10:27.646Z,51.70
2019-05-25T09:12:54.475Z,49.00
2019-05-25T09:15:21.139Z,47.23
2019-05-25T09:17:47.747Z,47.90
2019-05-25T09:20:14.468Z,48.70
2019-05-25T09:22:41.254Z,47.19
2019-05-25T09:25:08.453Z,49.01
2019-05-25T09:27:35.296Z,48.68
2019-05-25T09:30:02.116Z,48.89
2019-05-25T09:32:28.909Z,45.63
2019-05-25T09:34:55.463Z,44.39
2019-05-25T09:37:22.269Z,49.34
2019-05-25T09:39:48.964Z,42.40
2019-05-25T09:42:15.977Z,42.60
2019-05-25T09:44:42.627Z,43.55
2019-05-25T09:47:09.274Z,42.92
2019-05-25T09:49:35.984Z,43.18
2019-05-25T09:52:02.797Z,42.86
2019-05-25T09:54:29.720Z,42.78
2019-05-25T09:56:56.408Z,44.53
2019-05-25T09:59:23.288Z,44.20
2019-05-25T10:01:50.134Z,43.73
2019-05-25T10:04:17.013Z,44.01
2019-05-25T10:06:43.986Z,46.41
2019-05-25T10:09:10.645Z,44.82
2019-05-25T10:11:37.326Z,44.43
2019-05-25T10:14:04.983Z,44.68
2019-05-25T10:16:31.805Z,43.48
2019-05-25T10:18:58.804Z,41.02
2019-05-25T10:21:25.600Z,40.38
2019-05-25T10:23:52.306Z,39.38
2019-05-25T10:26:22.896Z,38.78
2019-05-25T10:28:47.872Z,39.92
2019-05-25T10:31:14.601Z,41.72
2019-05-25T10:33:41.327Z,43.15
2019-05-25T10:36:08.147Z,44.61
2019-05-25T10:38:34.841Z,42.99
2019-05-25T10:41:01.822Z,40.75
2019-05-25T10:43:29.273Z,43.10
2019-05-25T10:45:56.603Z,41.65
2019-05-25T10:48:23.292Z,40.64
2019-05-25T10:50:50.417Z,41.15
2019-05-25T10:53:17.213Z,42.40
2019-05-25T10:55:44.170Z,42.16
2019-05-25T10:58:11.157Z,41.27
2019-05-25T11:00:39.067Z,41.14
2019-05-25T11:03:05.763Z,40.94
2019-05-25T11:05:32.833Z,42.48
2019-05-25T11:07:59.558Z,42.39
2019-05-25T11:10:26.472Z,41.45
2019-05-25T11:12:53.290Z,41.88
2019-05-25T11:15:20.101Z,42.50
2019-05-25T11:17:46.929Z,41.67
2019-05-25T11:20:14.509Z,41.39
2019-05-25T11:22:41.154Z,41.67
2019-05-25T11:25:10.338Z,43.32
2019-05-25T11:27:37.240Z,43.83
2019-05-25T11:30:09.459Z,44.89
2019-05-25T11:32:33.877Z,43.38
2019-05-25T11:35:00.592Z,45.51
2019-05-25T11:37:27.257Z,44.15
2019-05-25T11:39:54.023Z,44.32
2019-05-25T11:42:20.746Z,43.39
2019-05-25T11:44:47.588Z,43.78
2019-05-25T11:47:14.330Z,42.43
2019-05-25T11:49:41.071Z,44.04
2019-05-25T11:52:07.900Z,44.35
2019-05-25T11:54:34.570Z,42.96
2019-05-25T11:57:01.302Z,42.02
2019-05-25T11:59:27.985Z,41.59
2019-05-25T12:01:54.718Z,39.34
2019-05-25T12:04:21.605Z,37.71
2019-05-25T12:06:48.273Z,37.78
2019-05-25T12:09:15.484Z,36.96
2019-05-25T12:11:42.148Z,35.48
2019-05-25T12:14:08.901Z,35.48
2019-05-25T12:16:35.579Z,35.64
2019-05-25T12:19:02.336Z,36.71
2019-05-25T12:21:29.201Z,37.35
2019-05-25T12:23:55.996Z,36.48
2019-05-25T12:26:22.819Z,37.97
2019-05-25T12:28:49.471Z,36.36
2019-05-25T12:31:16.197Z,36.03
2019-05-25T12:33:42.927Z,36.22
2019-05-25T12:36:10.095Z,36.75
2019-05-25T12:38:36.803Z,37.48
2019-05-25T12:41:05.770Z,37.52
2019-05-25T12:43:32.494Z,38.56
2019-05-25T12:45:59.310Z,39.68
2019-05-25T12:48:25.959Z,39.23
2019-05-25T12:50:52.998Z,38.25
2019-05-25T12:53:19.758Z,39.07
2019-05-25T12:55:46.680Z,40.75
2019-05-25T12:58:13.536Z,41.54
2019-05-25T13:00:53.459Z,40.19
2019-05-25T13:03:10.885Z,40.82
2019-05-25T13:05:37.403Z,42.07
2019-05-25T13:08:05.431Z,41.73
2019-05-25T13:10:32.165Z,41.83
2019-05-25T13:13:01.912Z,45.64
2019-05-25T13:15:27.464Z,44.49
2019-05-25T13:17:54.744Z,49.65
2019-05-25T13:20:22.609Z,50.67
2019-05-25T13:22:49.538Z,50.82
2019-05-25T13:25:16.881Z,51.53
2019-05-25T13:27:43.751Z,51.32
2019-05-25T13:30:10.591Z,51.78
2019-05-25T13:32:37.773Z,52.96
2019-05-25T13:35:05.055Z,52.04
2019-05-25T13:37:31.957Z,53.43
2019-05-25T13:39:58.627Z,50.97
2019-05-25T13:42:25.369Z,50.42
2019-05-25T13:44:52.396Z,51.03
2019-05-25T13:47:19.152Z,50.90
2019-05-25T13:49:45.837Z,49.98
2019-05-25T13:52:12.557Z,49.10
2019-05-25T13:54:39.741Z,48.53
2019-05-25T13:57:06.540Z,48.84
2019-05-25T13:59:33.289Z,49.72
2019-05-25T14:02:00.212Z,51.46
2019-05-25T14:04:26.896Z,51.20
2019-05-25T14:06:53.679Z,48.47
2019-05-25T14:09:20.397Z,47.31
2019-05-25T14:11:47.114Z,46.69
2019-05-25T14:14:14.183Z,48.19
2019-05-25T14:16:41.069Z,47.25
2019-05-25T14:19:07.974Z,48.53
2019-05-25T14:21:34.720Z,50.39
2019-05-25T14:24:01.974Z,49.88
2019-05-25T14:26:28.765Z,49.99
2019-05-25T14:28:55.582Z,48.93
2019-05-25T14:31:22.466Z,49.55
2019-05-25T14:33:49.221Z,47.84
2019-05-25T14:36:15.893Z,48.17
2019-05-25T14:38:42.648Z,47.58
2019-05-25T14:41:14.055Z,47.58
2019-05-25T14:43:40.878Z,48.59
2019-05-25T14:46:07.724Z,47.85
2019-05-25T14:48:34.593Z,45.44
2019-05-25T14:51:01.635Z,48.90
2019-05-25T14:53:28.463Z,48.85
2019-05-25T14:55:55.111Z,50.99
2019-05-25T14:58:21.868Z,48.41
2019-05-25T15:00:50.976Z,49.80
2019-05-25T15:03:18.010Z,49.90
2019-05-25T15:05:44.809Z,49.07
2019-05-25T15:08:11.628Z,52.64
2019-05-25T15:10:38.557Z,51.36
2019-05-25T15:13:05.500Z,51.42
2019-05-25T15:15:32.288Z,52.17
2019-05-25T15:17:59.098Z,50.15
2019-05-25T15:20:26.077Z,48.98
2019-05-25T15:22:52.755Z,48.32
2019-05-25T15:25:19.395Z,46.44
2019-05-25T15:27:46.302Z,49.53
2019-05-25T15:30:13.484Z,48.72
2019-05-25T15:32:40.469Z,47.27
2019-05-25T15:35:07.232Z,47.40
2019-05-25T15:37:33.932Z,48.99
2019-05-25T15:40:00.707Z,50.25
2019-05-25T15:42:28.697Z,48.22
2019-05-25T15:44:56.464Z,48.33
2019-05-25T15:47:23.611Z,47.73
2019-05-25T15:49:50.528Z,49.46
2019-05-25T15:52:17.377Z,46.78
2019-05-25T15:54:44.290Z,48.89
2019-05-25T15:57:11.220Z,46.14
2019-05-25T15:59:38.056Z,48.44
2019-05-25T16:02:05.246Z,44.07
2019-05-25T16:04:32.133Z,45.32
2019-05-25T16:06:58.814Z,45.06
2019-05-25T16:09:25.504Z,43.79
2019-05-25T16:11:52.454Z,45.87
2019-05-25T16:14:19.604Z,44.60
2019-05-25T16:16:46.349Z,45.94
2019-05-25T16:19:13.480Z,45.75
2019-05-25T16:21:40.284Z,45.03
2019-05-25T16:24:08.185Z,44.48
2019-05-25T16:26:45.360Z,45.16
2019-05-25T16:29:03.629Z,46.19
2019-05-25T16:31:30.601Z,44.51
2019-05-25T16:33:57.550Z,43.83
2019-05-25T16:36:24.207Z,43.69
2019-05-25T16:38:51.060Z,43.85
2019-05-25T16:41:17.801Z,44.04
2019-05-25T16:43:44.849Z,45.60
2019-05-25T16:46:11.765Z,46.97
2019-05-25T16:48:38.434Z,46.64
2019-05-25T16:51:05.380Z,46.16
2019-05-25T16:53:32.157Z,46.44
2019-05-25T16:55:58.967Z,47.39
2019-05-25T16:58:25.723Z,48.34
2019-05-25T17:00:52.272Z,47.87
2019-05-25T17:03:28.254Z,48.47
2019-05-25T17:05:47.683Z,48.01
2019-05-25T17:08:14.460Z,48.95
2019-05-25T17:10:41.373Z,49.96
2019-05-25T17:13:08.016Z,49.40
2019-05-25T17:15:34.786Z,49.39
2019-05-25T17:18:04.602Z,49.44
2019-05-25T17:20:30.120Z,49.87
2019-05-25T17:22:56.757Z,50.67
2019-05-25T17:25:23.438Z,51.21
2019-05-25T17:27:50.057Z,52.04
2019-05-25T17:30:25.392Z,52.54
2019-05-25T17:32:52.130Z,52.80
2019-05-25T17:35:18.900Z,52.93
2019-05-25T17:37:45.726Z,52.75
2019-05-25T17:40:12.505Z,54.07
2019-05-25T17:42:39.306Z,53.36
2019-05-25T17:45:06.376Z,54.09
2019-05-25T17:47:33.160Z,53.55
2019-05-25T17:50:00.153Z,53.58
2019-05-25T17:52:26.831Z,53.51
2019-05-25T17:54:53.629Z,53.85
2019-05-25T17:57:20.400Z,54.43
2019-05-25T17:59:47.076Z,55.22
2019-05-25T18:02:13.952Z,55.06
2019-05-25T18:04:40.509Z,55.86
2019-05-25T18:07:07.242Z,55.01
2019-05-25T18:09:33.995Z,54.56
2019-05-25T18:12:00.657Z,55.07
2019-05-25T18:14:27.357Z,55.81
2019-05-25T18:16:54.015Z,55.55
2019-05-25T18:19:20.758Z,55.29
2019-05-25T18:21:47.428Z,54.98
2019-05-25T18:24:14.387Z,56.04
2019-05-25T18:26:41.373Z,55.65
2019-05-25T18:29:08.278Z,56.32
2019-05-25T18:31:35.073Z,56.57
2019-05-25T18:34:01.810Z,56.96
2019-05-25T18:36:28.616Z,56.95
2019-05-25T18:38:55.186Z,57.37
2019-05-25T18:41:22.121Z,57.61
2019-05-25T18:43:49.010Z,58.11
2019-05-25T18:46:15.708Z,58.02
2019-05-25T18:48:42.645Z,58.23
2019-05-25T18:51:09.442Z,58.44
2019-05-25T18:53:36.144Z,59.20
2019-05-25T18:56:02.934Z,59.16
2019-05-25T18:58:29.719Z,59.02
2019-05-25T19:00:56.528Z,58.69
2019-05-25T19:03:23.255Z,59.06
2019-05-25T19:05:50.434Z,59.10
2019-05-25T19:08:17.259Z,59.27
2019-05-25T19:10:45.928Z,59.29
2019-05-25T19:13:12.961Z,59.79
2019-05-25T19:15:39.772Z,59.76
2019-05-25T19:18:06.768Z,59.98
2019-05-25T19:20:33.500Z,60.12
2019-05-25T19:23:00.202Z,60.67
2019-05-25T19:25:27.158Z,60.75
2019-05-25T19:27:53.954Z,60.98
2019-05-25T19:30:20.934Z,60.83
2019-05-25T19:32:47.871Z,61.22
2019-05-25T19:35:14.725Z,61.43
2019-05-25T19:37:42.654Z,61.51
2019-05-25T19:40:09.779Z,61.66
2019-05-25T19:42:36.612Z,61.72
2019-05-25T19:45:03.695Z,62.13
2019-05-25T19:47:30.549Z,62.02
2019-05-25T19:49:57.376Z,62.32
2019-05-25T19:52:24.476Z,62.74
2019-05-25T19:54:51.372Z,62.85
2019-05-25T19:57:18.312Z,63.11
2019-05-25T19:59:45.169Z,62.92
2019-05-25T20:02:12.397Z,63.50
2019-05-25T20:04:39.305Z,63.71
2019-05-25T20:07:06.197Z,63.57
2019-05-25T20:09:33.522Z,64.03
2019-05-25T20:12:00.470Z,64.08
2019-05-25T20:14:27.279Z,64.44
2019-05-25T20:16:54.119Z,64.47
2019-05-25T20:19:21.040Z,65.12
2019-05-25T20:21:47.854Z,65.25
2019-05-25T20:24:14.713Z,65.94
2019-05-25T20:26:41.551Z,66.05
2019-05-25T20:29:08.423Z,66.11
2019-05-25T20:31:36.142Z,66.14
2019-05-25T20:34:03.075Z,66.86
2019-05-25T20:36:30.616Z,66.75
2019-05-25T20:38:57.410Z,67.45
2019-05-25T20:41:24.104Z,67.82
2019-05-25T20:43:50.945Z,67.70
2019-05-25T20:46:17.752Z,67.66
2019-05-25T20:48:44.639Z,67.78
2019-05-25T20:51:11.357Z,67.95
2019-05-25T20:53:38.086Z,68.42
2019-05-25T20:56:04.850Z,68.60
2019-05-25T20:58:31.720Z,68.62
2019-05-25T21:00:58.495Z,68.75
2019-05-25T21:03:25.198Z,69.04
2019-05-25T21:05:59.103Z,69.13
2019-05-25T21:08:26.118Z,68.99
2019-05-25T21:10:52.981Z,68.88
2019-05-25T21:13:19.890Z,69.07
2019-05-25T21:15:46.575Z,69.03
2019-05-25T21:18:15.981Z,68.93
2019-05-25T21:20:42.877Z,69.06
2019-05-25T21:23:11.846Z,69.31
2019-05-25T21:25:38.835Z,69.26
2019-05-25T21:28:05.718Z,69.59
2019-05-25T21:30:32.758Z,69.50
2019-05-25T21:32:59.550Z,69.84
2019-05-25T21:35:26.588Z,69.90
2019-05-25T21:37:53.616Z,69.70
2019-05-25T21:40:20.386Z,69.55
2019-05-25T21:42:47.138Z,69.37
2019-05-25T21:45:13.967Z,69.85
2019-05-25T21:47:40.629Z,69.20
2019-05-25T21:50:07.667Z,69.61
2019-05-25T21:52:34.536Z,70.04
2019-05-25T21:55:01.585Z,70.48
2019-05-25T21:57:28.332Z,69.97
2019-05-25T21:59:55.074Z,70.04
2019-05-25T22:02:22.011Z,70.26
2019-05-25T22:04:48.764Z,70.11
2019-05-25T22:07:15.605Z,70.34
2019-05-25T22:09:42.387Z,70.39
2019-05-25T22:12:09.126Z,70.93
2019-05-25T22:14:36.175Z,71.02
2019-05-25T22:17:02.997Z,70.74
2019-05-25T22:19:29.752Z,70.80
2019-05-25T22:21:56.322Z,71.11
2019-05-25T22:24:23.074Z,70.79
2019-05-25T22:26:49.751Z,70.96
2019-05-25T22:29:16.376Z,70.07
2019-05-25T22:31:43.109Z,70.54
2019-05-25T22:34:09.822Z,70.43
2019-05-25T22:36:40.789Z,69.98
2019-05-25T22:39:05.985Z,70.35
2019-05-25T22:41:32.731Z,70.19
2019-05-25T22:43:59.608Z,69.92
2019-05-25T22:46:26.245Z,70.33
2019-05-25T22:48:52.930Z,70.48
2019-05-25T22:51:19.502Z,70.08
2019-05-25T22:53:46.265Z,70.82
2019-05-25T22:56:12.994Z,70.59
2019-05-25T22:58:39.643Z,70.70
2019-05-25T23:01:06.326Z,71.04
2019-05-25T23:03:33.074Z,71.04
2019-05-25T23:05:59.719Z,70.88
2019-05-25T23:08:26.562Z,71.10
2019-05-25T23:10:53.379Z,71.37
2019-05-25T23:13:20.265Z,71.31
2019-05-25T23:15:46.808Z,71.28
2019-05-25T23:18:13.581Z,71.05
2019-05-25T23:20:40.239Z,70.57
2019-05-25T23:23:07.882Z,71.05
2019-05-25T23:25:34.704Z,71.61
2019-05-25T23:28:02.555Z,71.08
2019-05-25T23:30:29.189Z,70.86
2019-05-25T23:32:56.155Z,70.60
2019-05-25T23:35:22.886Z,70.98
2019-05-25T23:37:49.663Z,70.98
2019-05-25T23:40:16.497Z,71.08
2019-05-25T23:42:43.085Z,71.65
2019-05-25T23:45:09.992Z,71.46
2019-05-25T23:47:36.848Z,71.45
2019-05-25T23:50:04.980Z,71.61
2019-05-25T23:52:31.653Z,71.47
2019-05-25T23:54:58.399Z,71.47
2019-05-25T23:57:25.244Z,71.46
2019-05-25T23:59:52.293Z,71.39
